Meteo Giornale » Osservazioni meteo Stati Uniti (USA) » Easton-Newman Fld

ore: 13:50 - Osservazioni Meteo Easton-Newman Fld
Lat. 38° 48' N Lon. 76° 4' W Alt. 22 metri s.l.m.

sereno

31 °C

Sereno

Temp. 24 Ore

23 °C

31 °C

Ovest

11.1 Km/h

Dew point 24 °C

Umidità 66 %

Visibilità  10 Km

Il sole sorge alle ore 06:33

Il sole tramonta alle ore 19:34

Data e Ora Cielo e Fenomeni T °C DP °C Um. % Pres. hPa Vis. km Vento km/h
Oggi h: 13:50 sereno Sereno 31 24 66 1015 10 O 11.1
Oggi h: 12:45 sereno Sereno 31 24 66 1016 10 O 9.3
Oggi h: 11:45 sereno Sereno 31 24 66 1016 10 O/SO 11.1
Oggi h: 10:50 sereno Sereno 29 24 74 1016 10 O/SO 9.3
Oggi h: 09:45 sereno Sereno 29 24 74 1016 10 SO 11.1
Oggi h: 08:45 sereno Sereno 28 25 83 1017 10 SO 7.4
Oggi h: 07:45 sereno Sereno 24 24 100 1017 10 N 0
Oggi h: 06:45 sereno Sereno 23 23 100 1016 11 N 0
Oggi h: 05:55 sereno Sereno 23 23 100 1016 14 N 0
Oggi h: 05:35 sereno Sereno 23 23 100 1016 11 N 0
Oggi h: 05:15 sereno Sereno 23 23 100 1016 13 N 0
Oggi h: 04:55 sereno Sereno 23 23 100 1016 14 N 0
Oggi h: 04:35 sereno Sereno 23 23 100 1016 14 N 0
Oggi h: 04:15 sereno Sereno 23 23 100 1016 14 N 0
Oggi h: 03:55 sereno Sereno 23 23 100 1017 14 N 0
Oggi h: 03:35 nuvoloso Nuvoloso 23 23 100 1017 10 N 0
Oggi h: 03:15 molto_nuvoloso Molto Nuvoloso 23 23 100 1017 10 N 0
Oggi h: 02:55 molto_nuvoloso Molto Nuvoloso 24 23 94 1017 10 N 0
Oggi h: 02:35 molto_nuvoloso Molto Nuvoloso 23 23 100 1017 10 S/SO 7.4
Oggi h: 02:15 nuvoloso Nuvoloso 23 23 100 1017 10 S 9.3
Oggi h: 01:55 molto_nuvoloso Molto Nuvoloso 23 23 100 1017 10 S 7.4
Oggi h: 01:35 nuvoloso Nuvoloso 23 23 100 1017 10 N 5.5
Oggi h: 00:55 molto_nuvoloso Molto Nuvoloso 23 23 100 1018 10 N 5.5
Oggi h: 00:35 coperto Coperto 23 23 100 1018 10 N 0
Oggi h: 00:15 coperto Coperto 24 23 94 1018 10 N 0
Ieri h: 23:55 molto_nuvoloso Molto Nuvoloso 24 23 94 1018 10 N 5.5
Ieri h: 23:35 molto_nuvoloso Molto Nuvoloso 24 23 94 1018 10 N 0
Ieri h: 23:15 molto_nuvoloso Molto Nuvoloso 24 23 94 1018 10 S/SE 7.4
Ieri h: 22:55 molto_nuvoloso Molto Nuvoloso 24 23 94 1018 10 N 0
Ieri h: 22:35 nuvoloso Nuvoloso 24 22 88 1018 10 N 0
Ieri h: 22:15 molto_nuvoloso Molto Nuvoloso 24 22 88 1018 10 S/SE 9.3
Ieri h: 21:45 molto_nuvoloso Molto Nuvoloso 25 23 88 1018 10 N 5.5
Ieri h: 20:45 molto_nuvoloso Molto Nuvoloso 25 23 88 1018 10 S/SE 7.4
Ieri h: 19:45 sereno Sereno 25 22 83 1018 10 SE 11.1
Ieri h: 18:45 nuvoloso Nuvoloso 27 23 78 1018 10 SE 16.7
Ieri h: 17:45 poco_nuvoloso Poco Nuvoloso 30 23 66 1018 10 N 5.5
Ieri h: 16:45 sereno Sereno 31 23 62 1018 10 NO 11.1
Ieri h: 15:50 poco_nuvoloso Poco Nuvoloso 30 23 66 1018 10 NO 9.3
Ieri h: 14:45 molto_nuvoloso Molto Nuvoloso 30 24 70 1018 10 NE 9.3